Terminal Aerodrome Forecast
Issued by NWS Bismarck, ND

Home | Current Version | Previous Version | Graphics & Text | Print | Product List | Glossary On
Versions: 1 2 3 4 5 6 7 8 9 10 11 12 13 14 15 16 17
000
FTUS43 KBIS 170529
TAFBIS
TAF
KBIS 170529Z 1706/1806 24005KT P6SM SKC
     FM171700 25013G18KT P6SM SKC
     FM172300 21009KT P6SM SKC
     FM180400 19006KT P6SM SKC WS013/22020KT=

USA.gov is the U.S. government's official web portal to all federal, state and local government web resources and services.